West Andover, Ohio
Current Conditions -  °F | °C
As of 3:53 AM on Saturday 25 Oct 2014 (Local Time) from KHZY Reporting Station
Overcast Overcast  
Wind Chill: 10°   Ceiling: 4600
Heat Index: 10°   Visibility: 10mi
Dew Point:   Wind: 3mph
Humidity: 77%   Direction: 210°SSW
Pressure: 29.94"   Gusts: NA
Location:  41.6317°N, 80.577°W
Report Text: KHZY 250753Z AUTO 21003KT 10SM OVC046 10/06 A2994 RMK AO2 SLP139 T01000061
Loading
Personal Weather Stations






























Interactive Weather Map
Tropical Storm Tracking
New forecast layout! Learn more

10-Day Weather Forecast

Advertisements
Track Severe Weather on mobile